Time;durP1;ratioP1;P1;durP2;ratioP2;P2;SDS_P1;SDS_P2;PMS_P1;PMS_P2;Temp;Humidity;BMP_temperature;BMP_pressure;BME280_temperature;BME280_humidity;BME280_pressure;Samples;Min_cycle;Max_cycle;Signal;HPM_P1;HPM_P2
2022/08/10 00:01:11;;;;;;;;;;;13.70;99.90;;;;;;5051337;28;19913;-75
2022/08/10 00:03:36;;;;;;;;;;;13.70;99.90;;;;;;5050575;28;20405;-75
2022/08/10 00:06:02;;;;;;;;;;;13.60;99.90;;;;;;5051107;28;20387;-76
2022/08/10 00:08:28;;;;;;;;;;;13.50;99.90;;;;;;5051132;28;20389;-76
2022/08/10 00:10:54;;;;;;;;;;;13.40;99.90;;;;;;5051372;28;20357;-75
2022/08/10 00:13:20;;;;;;;;;;;13.40;99.90;;;;;;5050302;28;20007;-75
2022/08/10 00:15:46;;;;;;;;;;;13.50;99.90;;;;;;5051140;28;19909;-75
2022/08/10 00:18:11;;;;;;;;;;;13.50;99.90;;;;;;5051123;28;19908;-75
2022/08/10 00:20:36;;;;;;;;;;;13.50;99.90;;;;;;5050731;28;19928;-75
2022/08/10 00:23:02;;;;;;;;;;;13.40;99.90;;;;;;5050644;28;20433;-74
2022/08/10 00:25:27;;;;;;;;;;;13.40;99.90;;;;;;5050735;28;19908;-75
2022/08/10 00:27:53;;;;;;;;;;;13.40;99.90;;;;;;5049722;28;19909;-76
2022/08/10 00:30:18;;;;;;;;;;;13.40;99.90;;;;;;5050884;28;19913;-76
2022/08/10 00:32:44;;;;;;;;;;;13.40;99.90;;;;;;5050583;28;19908;-75
2022/08/10 00:35:10;;;;;;;;;;;13.40;99.90;;;;;;5050564;28;19909;-75
2022/08/10 00:37:35;;;;;;;;;;;13.40;99.90;;;;;;5055018;28;19966;-76
2022/08/10 00:40:01;;;;;;;;;;;13.40;99.90;;;;;;5054873;28;19912;-77
2022/08/10 00:42:27;;;;;;;;;;;13.20;99.90;;;;;;5054445;28;19927;-77
2022/08/10 00:44:52;;;;;;;;;;;13.20;99.90;;;;;;5054912;28;19913;-76
2022/08/10 00:47:18;;;;;;;;;;;13.20;99.90;;;;;;5054932;28;20405;-76
2022/08/10 00:49:44;;;;;;;;;;;13.20;99.90;;;;;;5054436;28;20007;-75
2022/08/10 00:52:14;;;;;;;;;;;13.30;99.90;;;;;;5054285;28;19916;-75
2022/08/10 00:54:41;;;;;;;;;;;13.30;99.90;;;;;;5054345;28;20337;-75
2022/08/10 00:57:07;;;;;;;;;;;13.30;99.90;;;;;;5054533;28;19936;-74
2022/08/10 00:59:33;;;;;;;;;;;13.10;99.90;;;;;;5054372;28;20378;-75
2022/08/10 01:01:59;;;;;;;;;;;13.00;99.90;;;;;;5054052;28;19920;-75
2022/08/10 01:04:24;;;;;;;;;;;13.00;99.90;;;;;;5054407;28;19913;-75
2022/08/10 01:06:56;;;;;;;;;;;13.00;99.90;;;;;;5054813;28;19908;-75
2022/08/10 01:09:27;;;;;;;;;;;13.00;99.90;;;;;;5054677;28;19917;-76
2022/08/10 01:11:57;;;;;;;;;;;13.00;99.90;;;;;;5053807;28;19909;-75
2022/08/10 01:14:28;;;;;;;;;;;13.00;99.90;;;;;;5053736;28;19967;-75
2022/08/10 01:17:04;;;;;;;;;;;13.00;99.90;;;;;;5054190;28;19908;-76
2022/08/10 01:19:45;;;;;;;;;;;12.90;99.90;;;;;;5053780;28;19909;-75
2022/08/10 01:22:40;;;;;;;;;;;12.90;99.90;;;;;;5051072;28;19912;-73
2022/08/10 01:25:08;;;;;;;;;;;12.90;99.90;;;;;;5039213;28;19909;-73
2022/08/10 01:27:49;;;;;;;;;;;12.80;99.90;;;;;;5052548;28;19915;-75
2022/08/10 01:30:17;;;;;;;;;;;12.70;99.90;;;;;;5053909;28;19909;-74
2022/08/10 01:33:01;;;;;;;;;;;12.70;99.90;;;;;;5052157;28;19915;-74
2022/08/10 01:35:45;;;;;;;;;;;12.70;99.90;;;;;;5047725;28;19913;-73
2022/08/10 01:38:14;;;;;;;;;;;12.70;99.90;;;;;;5053724;28;19978;-75
2022/08/10 01:41:05;;;;;;;;;;;12.70;99.90;;;;;;5053627;28;19924;-74
2022/08/10 01:43:33;;;;;;;;;;;12.70;99.90;;;;;;5049919;28;19912;-74
2022/08/10 01:46:00;;;;;;;;;;;12.70;99.90;;;;;;5053739;28;19912;-75
2022/08/10 01:48:30;;;;;;;;;;;12.60;99.90;;;;;;5055043;28;20316;-74
2022/08/10 01:50:59;;;;;;;;;;;12.40;99.90;;;;;;5053059;28;19909;-74
2022/08/10 01:53:27;;;;;;;;;;;12.40;99.90;;;;;;5050622;28;20404;-75
2022/08/10 01:55:53;;;;;;;;;;;12.50;99.90;;;;;;5053306;28;19908;-76
2022/08/10 01:58:19;;;;;;;;;;;12.40;99.90;;;;;;5053226;28;19912;-75
2022/08/10 02:00:47;;;;;;;;;;;12.40;99.90;;;;;;5053174;28;19913;-74
2022/08/10 02:03:13;;;;;;;;;;;12.30;99.90;;;;;;5052407;28;19913;-74
2022/08/10 02:05:41;;;;;;;;;;;12.30;99.90;;;;;;5053102;28;19909;-75
2022/08/10 02:08:10;;;;;;;;;;;12.40;99.90;;;;;;5051598;28;19920;-76
2022/08/10 02:10:38;;;;;;;;;;;12.40;99.90;;;;;;5053090;28;19919;-75
2022/08/10 02:13:04;;;;;;;;;;;12.40;99.90;;;;;;5052690;28;19995;-74
2022/08/10 02:15:32;;;;;;;;;;;12.30;99.90;;;;;;5053129;28;19909;-75
2022/08/10 02:17:59;;;;;;;;;;;12.10;99.90;;;;;;5051122;28;19948;-75
2022/08/10 02:20:26;;;;;;;;;;;12.10;99.90;;;;;;5053299;28;19924;-75
2022/08/10 02:22:56;;;;;;;;;;;12.10;99.90;;;;;;5050186;28;19912;-74
2022/08/10 02:25:23;;;;;;;;;;;12.20;99.90;;;;;;5052343;28;19909;-74
2022/08/10 02:27:49;;;;;;;;;;;12.20;99.90;;;;;;5052818;28;19916;-74
2022/08/10 02:30:15;;;;;;;;;;;12.30;99.90;;;;;;5052543;28;19954;-74
2022/08/10 02:32:42;;;;;;;;;;;12.30;99.90;;;;;;5052439;28;19909;-74
2022/08/10 02:35:09;;;;;;;;;;;12.20;99.90;;;;;;5051660;28;20233;-74
2022/08/10 02:37:37;;;;;;;;;;;12.20;99.90;;;;;;5051207;28;19955;-74
2022/08/10 02:40:02;;;;;;;;;;;12.10;99.90;;;;;;5052391;28;19909;-74
2022/08/10 02:42:35;;;;;;;;;;;12.00;99.90;;;;;;5051945;28;19959;-75
2022/08/10 02:45:22;;;;;;;;;;;11.90;99.90;;;;;;5051757;28;19944;-75
2022/08/10 02:47:50;;;;;;;;;;;11.90;99.90;;;;;;5052377;28;19917;-74
2022/08/10 02:50:24;;;;;;;;;;;11.70;99.90;;;;;;5046174;28;19908;-74
2022/08/10 02:52:53;;;;;;;;;;;11.70;99.90;;;;;;5051816;28;20389;-75
2022/08/10 02:55:40;;;;;;;;;;;11.80;99.90;;;;;;5051715;28;19916;-75
2022/08/10 02:58:07;;;;;;;;;;;11.80;99.90;;;;;;5046330;28;19908;-75
2022/08/10 03:00:38;;;;;;;;;;;11.80;99.90;;;;;;5052391;28;19913;-75
2022/08/10 03:03:04;;;;;;;;;;;11.80;99.90;;;;;;5051397;28;19912;-75
2022/08/10 03:05:30;;;;;;;;;;;11.80;99.90;;;;;;5051642;28;20389;-75
2022/08/10 03:08:04;;;;;;;;;;;11.90;99.90;;;;;;5051516;28;19952;-75
2022/08/10 03:10:32;;;;;;;;;;;11.70;99.90;;;;;;5051219;28;20290;-75
2022/08/10 03:13:00;;;;;;;;;;;11.80;99.90;;;;;;5051315;28;19909;-75
2022/08/10 03:15:28;;;;;;;;;;;11.80;99.90;;;;;;5051820;28;19927;-75
2022/08/10 03:17:55;;;;;;;;;;;11.60;99.90;;;;;;5051207;28;20286;-75
2022/08/10 03:20:22;;;;;;;;;;;11.70;99.90;;;;;;5050591;28;19961;-75
2022/08/10 03:22:50;;;;;;;;;;;11.70;99.90;;;;;;5050615;28;20484;-75
2022/08/10 03:25:18;;;;;;;;;;;11.60;99.90;;;;;;5051089;28;19909;-75
2022/08/10 03:27:44;;;;;;;;;;;11.40;99.90;;;;;;5051691;28;20004;-75
2022/08/10 03:30:10;;;;;;;;;;;11.40;99.90;;;;;;5051756;28;19938;-75
2022/08/10 03:32:37;;;;;;;;;;;11.40;99.90;;;;;;5053077;28;19909;-75
2022/08/10 03:35:03;;;;;;;;;;;11.50;99.90;;;;;;5051549;28;19908;-74
2022/08/10 03:37:28;;;;;;;;;;;11.50;99.90;;;;;;5051471;28;19909;-75
2022/08/10 03:39:54;;;;;;;;;;;11.40;99.90;;;;;;5050294;28;20031;-75
2022/08/10 03:42:21;;;;;;;;;;;11.40;99.90;;;;;;5051397;28;19920;-75
2022/08/10 03:44:47;;;;;;;;;;;11.40;99.90;;;;;;5051341;28;20380;-74
2022/08/10 03:47:13;;;;;;;;;;;11.40;99.90;;;;;;5051661;28;19908;-75
2022/08/10 03:49:40;;;;;;;;;;;11.50;99.90;;;;;;5054132;28;19908;-74
2022/08/10 03:52:06;;;;;;;;;;;11.40;99.90;;;;;;5050718;28;19916;-75
2022/08/10 03:54:32;;;;;;;;;;;11.40;99.90;;;;;;5051107;28;20008;-74
2022/08/10 03:56:57;;;;;;;;;;;11.40;99.90;;;;;;5051588;28;19916;-75
2022/08/10 03:59:23;;;;;;;;;;;11.30;99.90;;;;;;5051088;28;19909;-74
2022/08/10 04:01:49;;;;;;;;;;;11.30;99.90;;;;;;5050667;28;20258;-74
2022/08/10 04:04:15;;;;;;;;;;;11.20;99.90;;;;;;5050749;28;19909;-75
2022/08/10 04:06:40;;;;;;;;;;;11.20;99.90;;;;;;5044406;28;19909;-75
2022/08/10 04:09:06;;;;;;;;;;;11.30;99.90;;;;;;5050986;28;19975;-75
2022/08/10 04:11:31;;;;;;;;;;;11.20;99.90;;;;;;5053356;28;19925;-74
2022/08/10 04:13:57;;;;;;;;;;;11.30;99.90;;;;;;5054568;28;19940;-75
2022/08/10 04:16:22;;;;;;;;;;;11.40;99.90;;;;;;5055379;28;19908;-75
2022/08/10 04:18:48;;;;;;;;;;;11.40;99.90;;;;;;5053907;28;19913;-75
2022/08/10 04:21:17;;;;;;;;;;;11.40;99.90;;;;;;5051121;28;19963;-76
2022/08/10 04:23:44;;;;;;;;;;;11.40;99.90;;;;;;5054523;28;19966;-75
2022/08/10 04:26:11;;;;;;;;;;;11.20;99.90;;;;;;5055176;28;20001;-76
2022/08/10 04:28:36;;;;;;;;;;;11.20;99.90;;;;;;5055087;28;19991;-75
2022/08/10 04:31:03;;;;;;;;;;;11.20;99.90;;;;;;5053636;28;19992;-75
2022/08/10 04:33:28;;;;;;;;;;;11.20;99.90;;;;;;5054072;28;19908;-76
2022/08/10 04:35:55;;;;;;;;;;;11.20;99.90;;;;;;5055737;28;19970;-74
2022/08/10 04:38:22;;;;;;;;;;;11.30;99.90;;;;;;5056741;28;19908;-76
2022/08/10 04:40:47;;;;;;;;;;;11.20;99.90;;;;;;5056097;28;19919;-75
2022/08/10 04:43:13;;;;;;;;;;;11.20;99.90;;;;;;5054587;28;19913;-76
2022/08/10 04:45:40;;;;;;;;;;;11.30;99.90;;;;;;5054642;28;20405;-76
2022/08/10 04:48:05;;;;;;;;;;;11.50;99.90;;;;;;5058537;28;19916;-75
2022/08/10 04:50:31;;;;;;;;;;;11.50;99.90;;;;;;5051602;28;19909;-75
2022/08/10 04:52:56;;;;;;;;;;;11.40;99.90;;;;;;5060444;28;19913;-77
2022/08/10 04:55:22;;;;;;;;;;;11.40;99.90;;;;;;5058527;28;19915;-76
2022/08/10 04:57:47;;;;;;;;;;;11.50;99.90;;;;;;5057137;28;19915;-75
2022/08/10 05:00:13;;;;;;;;;;;11.60;99.90;;;;;;5057811;28;19960;-76
2022/08/10 05:02:39;;;;;;;;;;;11.70;99.90;;;;;;5055935;28;20003;-77
2022/08/10 05:05:05;;;;;;;;;;;11.90;99.90;;;;;;5055686;28;19995;-76
2022/08/10 05:07:30;;;;;;;;;;;12.00;99.90;;;;;;5058700;28;19947;-75
2022/08/10 05:09:56;;;;;;;;;;;12.00;99.90;;;;;;5056248;28;20364;-75
2022/08/10 05:12:22;;;;;;;;;;;12.10;99.90;;;;;;5057129;28;20362;-76
2022/08/10 05:14:47;;;;;;;;;;;12.20;99.90;;;;;;5055929;28;20394;-77
2022/08/10 05:17:13;;;;;;;;;;;12.30;99.90;;;;;;5056479;28;19916;-76
2022/08/10 05:19:38;;;;;;;;;;;12.30;99.90;;;;;;5055009;28;19916;-75
2022/08/10 05:22:04;;;;;;;;;;;12.40;99.90;;;;;;5053420;28;20286;-75
2022/08/10 05:24:30;;;;;;;;;;;12.50;99.90;;;;;;5061130;28;19909;-76
2022/08/10 05:26:56;;;;;;;;;;;12.70;99.90;;;;;;5055058;28;19916;-76
2022/08/10 05:29:21;;;;;;;;;;;12.90;99.90;;;;;;5055669;28;19908;-76
2022/08/10 05:31:47;;;;;;;;;;;13.10;99.90;;;;;;5048174;28;19913;-75
2022/08/10 05:34:12;;;;;;;;;;;13.30;99.90;;;;;;5054596;28;19909;-75
2022/08/10 05:36:38;;;;;;;;;;;13.30;99.90;;;;;;5054520;28;19908;-75
2022/08/10 05:39:03;;;;;;;;;;;13.50;99.90;;;;;;5056532;28;19909;-76
2022/08/10 05:41:29;;;;;;;;;;;13.70;99.90;;;;;;5057015;28;19915;-75
2022/08/10 05:43:55;;;;;;;;;;;13.80;99.90;;;;;;5054311;28;19916;-75
2022/08/10 05:46:21;;;;;;;;;;;13.90;99.90;;;;;;5053959;28;19954;-75
2022/08/10 05:48:48;;;;;;;;;;;13.90;99.90;;;;;;5053707;28;19958;-75
2022/08/10 05:51:14;;;;;;;;;;;13.90;99.90;;;;;;5054566;28;19913;-76
2022/08/10 05:53:40;;;;;;;;;;;14.00;99.90;;;;;;5054465;28;19909;-76
2022/08/10 05:56:06;;;;;;;;;;;14.20;99.90;;;;;;5053747;28;19909;-76
2022/08/10 05:58:33;;;;;;;;;;;14.50;99.90;;;;;;5053577;28;19948;-76
2022/08/10 06:01:00;;;;;;;;;;;14.70;99.90;;;;;;5053352;28;20389;-76
2022/08/10 06:03:41;;;;;;;;;;;15.00;99.90;;;;;;5052617;28;19913;-76
2022/08/10 06:06:08;;;;;;;;;;;15.20;99.90;;;;;;5051825;28;19912;-76
2022/08/10 06:08:34;;;;;;;;;;;15.30;99.90;;;;;;5052122;28;19920;-76
2022/08/10 06:11:01;;;;;;;;;;;15.50;99.90;;;;;;5053441;28;19915;-76
2022/08/10 06:16:13;;;;;;;;;;;15.80;99.90;;;;;;5040856;28;19920;-76
2022/08/10 06:18:39;;;;;;;;;;;15.90;99.90;;;;;;5050313;28;19913;-77
2022/08/10 06:21:05;;;;;;;;;;;16.10;99.90;;;;;;5052298;28;19916;-76
2022/08/10 06:23:31;;;;;;;;;;;16.40;99.90;;;;;;5051921;28;19956;-75
2022/08/10 06:25:57;;;;;;;;;;;16.50;99.90;;;;;;5049048;28;20000;-75
2022/08/10 06:28:24;;;;;;;;;;;16.70;99.90;;;;;;5043527;28;20001;-75
2022/08/10 06:30:50;;;;;;;;;;;16.80;99.90;;;;;;5051190;28;19974;-75
2022/08/10 06:33:18;;;;;;;;;;;16.90;99.90;;;;;;5048977;28;19987;-75
2022/08/10 06:35:45;;;;;;;;;;;17.00;99.90;;;;;;5051434;28;20298;-75
2022/08/10 06:38:11;;;;;;;;;;;17.10;99.90;;;;;;5050386;28;19932;-74
2022/08/10 06:40:38;;;;;;;;;;;17.50;99.90;;;;;;5047894;28;19913;-74
2022/08/10 06:43:05;;;;;;;;;;;17.70;99.90;;;;;;5050253;28;19955;-75
2022/08/10 06:45:34;;;;;;;;;;;17.70;99.90;;;;;;5050886;28;19963;-75
2022/08/10 06:48:01;;;;;;;;;;;17.80;99.90;;;;;;5050918;28;19915;-75
2022/08/10 06:50:34;;;;;;;;;;;18.00;99.90;;;;;;5051021;28;19917;-75
2022/08/10 06:53:01;;;;;;;;;;;18.20;99.90;;;;;;5050947;28;20251;-75
2022/08/10 06:55:27;;;;;;;;;;;18.30;99.90;;;;;;5048796;28;19932;-74
2022/08/10 06:57:53;;;;;;;;;;;18.50;99.90;;;;;;5051009;28;19932;-74
2022/08/10 07:00:19;;;;;;;;;;;18.70;99.00;;;;;;5050531;28;20385;-74
2022/08/10 07:02:54;;;;;;;;;;;18.80;99.10;;;;;;5051203;28;19913;-75
2022/08/10 07:05:22;;;;;;;;;;;19.00;97.90;;;;;;5050305;28;20324;-75
2022/08/10 07:07:49;;;;;;;;;;;19.30;98.80;;;;;;5040983;28;20250;-75
2022/08/10 07:10:17;;;;;;;;;;;19.40;97.70;;;;;;5051517;28;20393;-75
2022/08/10 07:12:43;;;;;;;;;;;19.70;97.70;;;;;;5047041;28;19916;-72
2022/08/10 07:15:11;;;;;;;;;;;20.70;93.90;;;;;;5053289;28;19909;-73
2022/08/10 07:17:37;;;;;;;;;;;21.00;93.40;;;;;;5051504;28;19979;-73
2022/08/10 07:20:05;;;;;;;;;;;20.90;92.60;;;;;;5051408;28;19909;-73
2022/08/10 07:22:34;;;;;;;;;;;20.70;92.20;;;;;;5049180;28;20318;-72
2022/08/10 07:25:01;;;;;;;;;;;20.70;91.80;;;;;;5050914;28;19908;-73
2022/08/10 07:27:27;;;;;;;;;;;20.90;92.20;;;;;;5051235;28;19916;-73
2022/08/10 07:29:53;;;;;;;;;;;22.30;87.70;;;;;;5050675;28;20459;-73
2022/08/10 07:32:20;;;;;;;;;;;23.50;85.30;;;;;;5049907;28;19936;-74
2022/08/10 07:34:47;;;;;;;;;;;24.60;78.90;;;;;;5050642;28;19916;-74
2022/08/10 07:37:13;;;;;;;;;;;25.10;77.10;;;;;;5050991;28;19951;-74
2022/08/10 07:39:41;;;;;;;;;;;24.90;75.50;;;;;;5049921;28;19978;-74
2022/08/10 07:42:08;;;;;;;;;;;25.00;74.10;;;;;;5050917;28;19917;-74
2022/08/10 07:44:35;;;;;;;;;;;25.40;74.10;;;;;;5045405;28;19909;-74
2022/08/10 07:47:03;;;;;;;;;;;25.40;72.90;;;;;;5050540;28;19921;-74
2022/08/10 07:49:33;;;;;;;;;;;26.10;72.50;;;;;;5051277;28;20379;-75
2022/08/10 07:51:59;;;;;;;;;;;26.00;70.60;;;;;;5049510;28;19920;-75
2022/08/10 07:54:26;;;;;;;;;;;26.60;72.80;;;;;;5050423;28;19951;-75
2022/08/10 07:56:54;;;;;;;;;;;26.90;69.20;;;;;;5051089;28;20416;-75
2022/08/10 07:59:22;;;;;;;;;;;27.10;73.10;;;;;;5044007;28;19913;-75
2022/08/10 08:01:53;;;;;;;;;;;27.40;69.10;;;;;;5050556;28;19932;-74
2022/08/10 08:04:19;;;;;;;;;;;26.40;67.00;;;;;;5050187;28;19954;-74
2022/08/10 08:06:46;;;;;;;;;;;27.10;67.20;;;;;;5050799;28;19908;-74
2022/08/10 08:09:12;;;;;;;;;;;27.70;62.80;;;;;;5050716;28;19917;-77
2022/08/10 08:11:39;;;;;;;;;;;27.20;62.10;;;;;;5050476;28;19919;-75
2022/08/10 08:14:06;;;;;;;;;;;27.20;62.70;;;;;;5049172;28;19944;-74
2022/08/10 08:16:32;;;;;;;;;;;27.20;65.00;;;;;;5054578;28;19909;-75
2022/08/10 08:18:58;;;;;;;;;;;27.60;67.00;;;;;;5050546;28;19916;-75
2022/08/10 08:21:24;;;;;;;;;;;28.20;62.10;;;;;;5049915;28;19908;-74
2022/08/10 08:23:50;;;;;;;;;;;28.90;62.30;;;;;;5050104;28;19956;-75
2022/08/10 08:26:16;;;;;;;;;;;28.70;59.50;;;;;;5050980;28;19991;-75
2022/08/10 08:28:42;;;;;;;;;;;28.30;59.90;;;;;;5050681;28;19909;-75
2022/08/10 08:31:08;;;;;;;;;;;28.30;60.80;;;;;;5050694;28;19913;-74
2022/08/10 08:33:34;;;;;;;;;;;27.00;60.40;;;;;;5044272;28;19924;-74
2022/08/10 08:35:59;;;;;;;;;;;27.30;62.00;;;;;;5033720;28;19910;-74
2022/08/10 08:38:26;;;;;;;;;;;28.60;62.30;;;;;;5033979;28;20318;-75
2022/08/10 08:41:01;;;;;;;;;;;29.50;57.90;;;;;;5033986;28;19909;-74
2022/08/10 08:43:30;;;;;;;;;;;29.30;58.60;;;;;;5043564;28;19917;-75
2022/08/10 08:46:13;;;;;;;;;;;28.70;57.20;;;;;;5050466;28;19949;-75
2022/08/10 08:48:58;;;;;;;;;;;29.90;59.70;;;;;;5039909;28;20437;-74
2022/08/10 08:51:27;;;;;;;;;;;28.90;55.40;;;;;;5038936;28;19912;-74
2022/08/10 08:54:06;;;;;;;;;;;29.30;55.40;;;;;;5035810;28;19924;-74
2022/08/10 08:56:41;;;;;;;;;;;29.30;58.60;;;;;;5038386;28;19913;-74
2022/08/10 08:59:32;;;;;;;;;;;29.40;56.70;;;;;;5044215;28;19979;-75
2022/08/10 09:02:17;;;;;;;;;;;30.10;54.50;;;;;;5053083;28;19923;-74
2022/08/10 09:04:54;;;;;;;;;;;29.80;55.30;;;;;;5044161;28;19913;-74
2022/08/10 09:07:20;;;;;;;;;;;30.00;54.10;;;;;;5038001;28;19916;-73
2022/08/10 09:10:15;;;;;;;;;;;29.60;55.60;;;;;;5054086;28;20001;-74
2022/08/10 09:13:03;;;;;;;;;;;29.50;52.90;;;;;;5047775;28;20019;-74
2022/08/10 09:15:47;;;;;;;;;;;29.90;53.80;;;;;;5048957;28;20205;-74
2022/08/10 09:18:22;;;;;;;;;;;29.40;52.40;;;;;;5053742;28;19923;-74
2022/08/10 09:20:50;;;;;;;;;;;31.00;51.70;;;;;;5049134;28;20007;-74
2022/08/10 09:23:23;;;;;;;;;;;30.40;53.10;;;;;;5052220;28;19913;-74
2022/08/10 09:25:53;;;;;;;;;;;31.10;52.30;;;;;;5053813;28;19935;-74
2022/08/10 09:28:23;;;;;;;;;;;30.90;50.50;;;;;;5053465;28;19909;-74
2022/08/10 09:30:51;;;;;;;;;;;29.70;52.40;;;;;;5052363;28;20289;-74
2022/08/10 09:33:24;;;;;;;;;;;29.90;52.50;;;;;;5046246;28;20455;-74
2022/08/10 09:36:10;;;;;;;;;;;31.00;50.90;;;;;;5053155;28;19913;-74
2022/08/10 09:38:35;;;;;;;;;;;30.50;46.10;;;;;;5048021;28;19909;-74
2022/08/10 09:41:20;;;;;;;;;;;30.10;48.10;;;;;;5053438;28;19909;-74
2022/08/10 09:43:50;;;;;;;;;;;30.60;52.10;;;;;;5052628;28;19920;-74
2022/08/10 09:46:22;;;;;;;;;;;30.40;46.40;;;;;;5053553;28;20000;-74
2022/08/10 09:48:49;;;;;;;;;;;31.10;49.10;;;;;;5046794;28;19912;-74
2022/08/10 09:51:33;;;;;;;;;;;30.30;47.40;;;;;;5045018;28;19935;-74
2022/08/10 09:54:06;;;;;;;;;;;30.30;47.00;;;;;;5048544;28;19916;-74
2022/08/10 09:56:52;;;;;;;;;;;29.80;48.40;;;;;;5051793;28;20326;-74
2022/08/10 09:59:40;;;;;;;;;;;30.80;45.90;;;;;;5052983;28;19920;-74
2022/08/10 10:02:27;;;;;;;;;;;31.10;45.90;;;;;;5030164;28;19914;-74
2022/08/10 10:04:53;;;;;;;;;;;30.10;44.50;;;;;;5052029;28;19951;-74
2022/08/10 10:07:24;;;;;;;;;;;31.10;45.80;;;;;;5052297;28;19995;-73
2022/08/10 10:09:49;;;;;;;;;;;31.40;44.90;;;;;;5051911;28;19916;-74
2022/08/10 10:12:21;;;;;;;;;;;31.10;45.80;;;;;;5052228;28;19909;-74
2022/08/10 10:15:20;;;;;;;;;;;31.90;46.80;;;;;;5051918;28;19909;-74
2022/08/10 10:18:06;;;;;;;;;;;31.20;43.10;;;;;;5052362;28;20362;-74
2022/08/10 10:20:32;;;;;;;;;;;31.60;44.10;;;;;;5056218;28;19908;-74
2022/08/10 10:23:07;;;;;;;;;;;32.30;44.10;;;;;;5053138;28;20317;-74
2022/08/10 10:25:46;;;;;;;;;;;32.50;44.70;;;;;;5052565;28;20389;-74
2022/08/10 10:28:17;;;;;;;;;;;32.80;41.20;;;;;;5046756;28;20316;-75
2022/08/10 10:31:01;;;;;;;;;;;32.30;41.60;;;;;;5052219;28;19987;-74
2022/08/10 10:33:32;;;;;;;;;;;31.40;44.20;;;;;;5051284;28;19916;-74
2022/08/10 10:35:58;;;;;;;;;;;31.00;43.80;;;;;;5038687;28;20290;-74
2022/08/10 10:38:25;;;;;;;;;;;32.50;42.10;;;;;;5049063;28;19909;-74
2022/08/10 10:40:54;;;;;;;;;;;32.30;42.80;;;;;;5047826;28;20167;-74
2022/08/10 10:43:22;;;;;;;;;;;32.80;41.30;;;;;;5043163;28;19913;-74
2022/08/10 10:45:56;;;;;;;;;;;32.10;41.00;;;;;;5051165;28;20301;-74
2022/08/10 10:48:22;;;;;;;;;;;32.00;43.30;;;;;;5051868;28;19909;-74
2022/08/10 10:50:50;;;;;;;;;;;32.70;44.80;;;;;;5047249;28;19923;-74
2022/08/10 10:53:35;;;;;;;;;;;33.90;42.10;;;;;;5048394;28;19913;-74
2022/08/10 10:56:03;;;;;;;;;;;32.70;44.90;;;;;;5045353;28;19916;-74
2022/08/10 10:58:47;;;;;;;;;;;32.80;41.60;;;;;;5051448;28;19909;-74
2022/08/10 11:01:13;;;;;;;;;;;32.70;42.20;;;;;;5051408;28;19909;-75
2022/08/10 11:03:41;;;;;;;;;;;33.90;43.50;;;;;;5050484;28;19913;-75
2022/08/10 11:06:25;;;;;;;;;;;33.50;40.90;;;;;;5045892;28;19920;-75
2022/08/10 11:08:56;;;;;;;;;;;32.90;42.10;;;;;;5045123;28;19924;-74
2022/08/10 11:11:24;;;;;;;;;;;32.70;45.40;;;;;;5050915;28;19909;-74
2022/08/10 11:14:00;;;;;;;;;;;32.20;43.50;;;;;;5050505;28;20004;-74
2022/08/10 11:16:37;;;;;;;;;;;31.60;44.60;;;;;;5044769;28;20285;-74
2022/08/10 11:19:09;;;;;;;;;;;31.40;45.80;;;;;;5051146;28;20000;-74
2022/08/10 11:21:43;;;;;;;;;;;31.80;43.00;;;;;;5050306;28;19916;-74
2022/08/10 11:24:27;;;;;;;;;;;32.70;45.70;;;;;;5050450;28;19967;-74
2022/08/10 11:27:11;;;;;;;;;;;31.00;43.10;;;;;;5050520;28;19979;-74
2022/08/10 11:29:46;;;;;;;;;;;31.30;43.10;;;;;;5045866;28;19975;-74
2022/08/10 11:32:16;;;;;;;;;;;31.40;43.50;;;;;;5050816;28;19954;-74
2022/08/10 11:34:41;;;;;;;;;;;31.10;42.10;;;;;;5048705;28;20000;-74
2022/08/10 11:37:19;;;;;;;;;;;30.70;45.80;;;;;;5050388;28;20377;-73
2022/08/10 11:40:03;;;;;;;;;;;30.50;45.20;;;;;;5043638;28;20047;-74
2022/08/10 11:42:45;;;;;;;;;;;30.30;46.20;;;;;;5049895;28;19951;-74
2022/08/10 11:45:15;;;;;;;;;;;30.60;45.40;;;;;;5030946;28;19916;-74
2022/08/10 11:47:44;;;;;;;;;;;29.70;46.00;;;;;;5046617;28;19909;-74
2022/08/10 11:50:14;;;;;;;;;;;29.00;46.10;;;;;;5050387;28;19909;-74
2022/08/10 11:52:47;;;;;;;;;;;29.10;45.40;;;;;;5054607;28;20369;-74
2022/08/10 11:55:18;;;;;;;;;;;29.80;45.10;;;;;;5050848;28;19909;-74
2022/08/10 11:57:45;;;;;;;;;;;29.50;45.20;;;;;;5050904;28;19908;-74
2022/08/10 12:00:11;;;;;;;;;;;29.40;44.60;;;;;;5050900;28;19915;-74
2022/08/10 12:02:40;;;;;;;;;;;29.10;45.40;;;;;;5050372;28;20370;-74
2022/08/10 12:05:07;;;;;;;;;;;29.90;47.50;;;;;;5050668;28;19909;-74
2022/08/10 12:07:37;;;;;;;;;;;29.90;43.60;;;;;;5050644;28;19913;-74
2022/08/10 12:10:03;;;;;;;;;;;29.70;44.50;;;;;;5050961;28;19913;-74
2022/08/10 12:12:32;;;;;;;;;;;29.90;45.20;;;;;;5050526;28;20310;-74
2022/08/10 12:15:09;;;;;;;;;;;29.80;47.30;;;;;;5050556;28;19913;-75
2022/08/10 12:17:44;;;;;;;;;;;29.20;45.00;;;;;;5051011;28;19916;-75
2022/08/10 12:20:14;;;;;;;;;;;29.70;45.00;;;;;;5048726;28;20387;-75
2022/08/10 12:22:59;;;;;;;;;;;30.10;45.90;;;;;;5043566;28;19967;-75
2022/08/10 12:25:28;;;;;;;;;;;30.00;44.80;;;;;;5049835;28;19963;-74
2022/08/10 12:27:58;;;;;;;;;;;30.40;45.50;;;;;;5050605;28;20371;-75
2022/08/10 12:30:31;;;;;;;;;;;31.30;44.30;;;;;;5048700;28;19909;-75
2022/08/10 12:33:00;;;;;;;;;;;31.50;41.70;;;;;;5051975;28;19923;-74
2022/08/10 12:35:32;;;;;;;;;;;32.40;41.00;;;;;;5052832;28;20333;-75
2022/08/10 12:38:00;;;;;;;;;;;33.30;40.00;;;;;;5054452;28;20370;-74
2022/08/10 12:40:27;;;;;;;;;;;34.80;38.40;;;;;;5054530;28;19971;-74
2022/08/10 12:43:00;;;;;;;;;;;33.70;38.10;;;;;;5054084;28;20378;-75
2022/08/10 12:45:47;;;;;;;;;;;34.00;37.30;;;;;;5054381;28;19909;-75
2022/08/10 12:48:19;;;;;;;;;;;34.00;37.70;;;;;;5054329;28;19908;-75
2022/08/10 12:51:14;;;;;;;;;;;33.70;38.90;;;;;;5054077;28;19909;-75
2022/08/10 12:53:51;;;;;;;;;;;34.50;36.90;;;;;;5053235;28;19916;-75
2022/08/10 12:56:24;;;;;;;;;;;33.30;35.90;;;;;;5049940;28;19920;-75
2022/08/10 12:58:50;;;;;;;;;;;32.60;38.00;;;;;;5054037;28;19944;-76
2022/08/10 13:01:17;;;;;;;;;;;34.10;37.40;;;;;;5054095;28;19948;-75
2022/08/10 13:03:46;;;;;;;;;;;34.40;37.10;;;;;;5053662;28;19913;-76
2022/08/10 13:06:12;;;;;;;;;;;34.80;36.40;;;;;;5046445;28;20350;-75
2022/08/10 13:11:24;;;;;;;;;;;35.10;36.30;;;;;;5048075;28;19923;-76
2022/08/10 13:13:50;;;;;;;;;;;35.60;35.00;;;;;;5051908;28;19916;-76
2022/08/10 13:16:19;;;;;;;;;;;36.00;34.60;;;;;;5049545;28;19909;-75
2022/08/10 13:18:45;;;;;;;;;;;33.90;36.90;;;;;;5051463;28;19913;-75
2022/08/10 13:21:12;;;;;;;;;;;34.40;35.60;;;;;;5046710;28;19909;-76
2022/08/10 13:23:56;;;;;;;;;;;35.10;35.60;;;;;;5056348;28;20443;-74
2022/08/10 13:26:23;;;;;;;;;;;35.60;35.80;;;;;;5053077;28;19915;-75
2022/08/10 13:28:52;;;;;;;;;;;35.00;33.40;;;;;;5053124;28;19908;-75
2022/08/10 13:31:20;;;;;;;;;;;33.70;36.60;;;;;;5052439;28;19995;-75
2022/08/10 13:33:47;;;;;;;;;;;35.70;35.60;;;;;;5049607;28;20306;-75
2022/08/10 13:36:13;;;;;;;;;;;35.00;34.20;;;;;;5051848;28;19908;-76
2022/08/10 13:38:42;;;;;;;;;;;35.10;36.20;;;;;;5052428;28;19916;-75
2022/08/10 13:41:09;;;;;;;;;;;36.30;35.50;;;;;;5053070;28;19913;-75
2022/08/10 13:43:35;;;;;;;;;;;34.80;35.60;;;;;;5051846;28;19916;-75
2022/08/10 13:46:01;;;;;;;;;;;35.10;36.20;;;;;;5049920;28;19916;-76
2022/08/10 13:48:26;;;;;;;;;;;34.50;34.60;;;;;;5053368;28;19909;-76
2022/08/10 13:50:56;;;;;;;;;;;33.90;36.40;;;;;;5051378;28;19909;-75
2022/08/10 13:53:26;;;;;;;;;;;34.20;36.70;;;;;;5051993;28;19917;-75
2022/08/10 13:55:52;;;;;;;;;;;34.50;35.60;;;;;;5052861;28;19908;-75
2022/08/10 13:58:22;;;;;;;;;;;35.40;36.00;;;;;;5052976;28;19909;-76
2022/08/10 14:00:48;;;;;;;;;;;35.00;35.30;;;;;;5053004;28;19909;-75
2022/08/10 14:03:14;;;;;;;;;;;34.90;34.10;;;;;;5052161;28;19959;-75
2022/08/10 14:05:43;;;;;;;;;;;34.20;36.50;;;;;;5052882;28;19987;-75
2022/08/10 14:08:14;;;;;;;;;;;34.50;36.00;;;;;;5052610;28;19923;-75
2022/08/10 14:10:41;;;;;;;;;;;33.70;34.50;;;;;;5052803;28;19908;-75
2022/08/10 14:13:07;;;;;;;;;;;34.50;35.60;;;;;;5051586;28;19943;-75
2022/08/10 14:15:33;;;;;;;;;;;33.50;35.80;;;;;;5042076;28;20365;-76
2022/08/10 14:18:00;;;;;;;;;;;34.90;36.80;;;;;;5052516;28;19909;-76
2022/08/10 14:20:31;;;;;;;;;;;35.20;35.10;;;;;;5049542;28;19909;-76
2022/08/10 14:23:00;;;;;;;;;;;34.70;36.70;;;;;;5051068;28;19913;-76
2022/08/10 14:25:25;;;;;;;;;;;35.80;37.20;;;;;;5050225;28;19919;-76
2022/08/10 14:27:54;;;;;;;;;;;35.30;35.30;;;;;;5052679;28;20366;-76
2022/08/10 14:30:20;;;;;;;;;;;34.30;35.00;;;;;;5046302;28;19916;-76
2022/08/10 14:32:46;;;;;;;;;;;33.80;35.60;;;;;;5052218;28;19909;-76
2022/08/10 14:35:13;;;;;;;;;;;34.00;37.10;;;;;;5052369;28;19916;-75